Glenbrook, NV (89413)

10:29 AM PST on December 08, 2016 (GMT -0800)
| | Change Station
Active Advisory: Lake Wind Advisory

Elev -9999 ft 0.00 °N, 0.00 °E | Updated 7 minutes ago

Overcast
Overcast
°F
Feels Like °F
N
Wind Variable Wind from North
Gusts mph

Today
High -- | Low -- °F
--% Chance of Precip.
Yesterday
High -- | Low -- °F
Precip. -- in
Pressure 30.07 in
Visibility 10.0 miles
Clouds Overcast 3900 ft
Dew Point Not available.
Humidity Not available.
Rainfall --
Snow Depth Not available.
7:06 AM 4:37 PM
Waxing Gibbous, 65% visible
METAR KCXP 081815Z AUTO 00000KT 10SM OVC039 00/M03 A3007 RMK AO2
Pressure 30.07 in
Visibility 10.0 miles
Clouds Overcast 3900 ft
Dew Point Not available.
Humidity Not available.
Rainfall --
Snow Depth Not available.
7:06 AM 4:37 PM
Waxing Gibbous, 65% visible
METAR KCXP 081815Z AUTO 00000KT 10SM OVC039 00/M03 A3007 RMK AO2

10-Day Weather Forecast

Almanac

Astronomy

Dec. 08, 2016 Rise Set
Actual Time
Civil Twilight
Nautical Twilight
Astronomical Twilight
Moon
Length of Visible Light
Length of Day
Tomorrow will be .
, % of the Moon is Illuminated

Today's Extremes

State Highs State Lows

Community

WunderPhotos

Upload Photos

1,956,277 photos uploaded!

WunderBlog® & News

Nearby

Air Quality

  Air Quality AQ Index Pollutant
Not available.

Snow Depth

Station Depth Elevation

Earthquake Activity

City Distance Mag. Time & Date
Minimum magnitude displayed is 2.5.

Coastal Water Temperatures

Place Temperature

Stations

Nearby Weather Stations

Station Location Temp. Windchill Dew Point Humidity Wind Precip. Elev Updated Type
                   

Watches & Warnings

Lake Wind Advisory
Issued: 4:01 AM PST Dec. 8, 2016 – National Weather Service

... Lake Wind Advisory in effect from 1 PM this afternoon to 4 am
PST Saturday for Lake Tahoe...

The National Weather Service in Reno has issued a lake Wind
Advisory for Lake Tahoe, which is in effect from 1 PM this
afternoon to 4 am PST Saturday.

* Winds: southwest 15 to 25 mph with gusts to 40 mph.

* Wave heights: 2 to 4 feet.

* Small boats, kayaks and paddle boards will be prone to capsizing
and should remain off lake waters until conditions improve.

Precautionary/preparedness actions...

Check lake conditions before heading out and be prepared for a
sudden increase in winds and wave heights. Consider postponing
boating activities on the lake until a day with less wind.



Http://weather.Gov/Reno